createdAt,value
2018-01-26T00:42:14.706Z,7.10
2018-01-26T00:44:42.442Z,7.10
2018-01-26T00:47:10.765Z,7.00
2018-01-26T00:49:38.350Z,6.90
2018-01-26T00:52:05.963Z,6.90
2018-01-26T00:54:33.496Z,6.90
2018-01-26T00:57:01.834Z,6.80
2018-01-26T00:59:29.382Z,6.80
2018-01-26T01:01:56.944Z,6.80
2018-01-26T01:04:24.486Z,6.90
2018-01-26T01:06:52.021Z,6.80
2018-01-26T01:09:20.408Z,6.90
2018-01-26T01:11:48.751Z,6.90
2018-01-26T01:14:16.467Z,6.90
2018-01-26T01:16:44.804Z,7.00
2018-01-26T01:19:12.368Z,7.00
2018-01-26T01:21:39.916Z,6.90
2018-01-26T01:24:07.476Z,6.90
2018-01-26T01:26:35.028Z,6.90
2018-01-26T01:29:02.577Z,6.90
2018-01-26T01:31:30.142Z,7.00
2018-01-26T01:33:57.693Z,7.00
2018-01-26T01:36:25.283Z,7.00
2018-01-26T01:38:52.838Z,6.90
2018-01-26T01:41:20.409Z,6.80
2018-01-26T01:43:47.957Z,6.80
2018-01-26T01:46:15.586Z,6.70
2018-01-26T01:48:43.136Z,6.70
2018-01-26T01:51:10.741Z,6.70
2018-01-26T01:53:38.388Z,6.70
2018-01-26T01:56:05.949Z,6.60
2018-01-26T01:58:33.485Z,6.60
2018-01-26T02:01:01.802Z,6.70
2018-01-26T02:03:29.345Z,6.60
2018-01-26T02:05:57.059Z,6.70
2018-01-26T02:08:24.616Z,6.80
2018-01-26T02:10:52.161Z,6.90
2018-01-26T02:13:19.732Z,6.90
2018-01-26T02:15:47.294Z,6.90
2018-01-26T02:18:14.840Z,6.90
2018-01-26T02:20:42.560Z,6.90
2018-01-26T02:23:10.881Z,7.00
2018-01-26T02:25:38.444Z,7.00
2018-01-26T02:28:05.993Z,7.00
2018-01-26T02:30:33.572Z,7.00
2018-01-26T02:33:01.120Z,7.10
2018-01-26T02:35:28.792Z,7.10
2018-01-26T02:37:56.336Z,7.10
2018-01-26T02:40:23.929Z,6.90
2018-01-26T02:42:51.477Z,6.80
2018-01-26T02:45:19.052Z,6.80
2018-01-26T02:47:46.601Z,6.70
2018-01-26T02:50:14.170Z,6.70
2018-01-26T02:52:41.931Z,6.70
2018-01-26T02:55:09.468Z,6.60
2018-01-26T02:57:37.778Z,6.50
2018-01-26T03:00:05.338Z,6.50
2018-01-26T03:02:32.966Z,6.60
2018-01-26T03:05:01.328Z,6.50
2018-01-26T03:07:28.870Z,6.50
2018-01-26T03:09:56.423Z,6.50
2018-01-26T03:12:24.087Z,6.50
2018-01-26T03:14:51.643Z,6.50
2018-01-26T03:17:19.493Z,6.50
2018-01-26T03:19:47.033Z,6.40
2018-01-26T03:22:14.697Z,6.40
2018-01-26T03:24:42.242Z,6.40
2018-01-26T03:27:10.541Z,6.40
2018-01-26T03:29:38.100Z,6.40
2018-01-26T03:32:05.657Z,6.40
2018-01-26T03:34:33.962Z,6.30
2018-01-26T03:37:01.552Z,6.20
2018-01-26T03:39:29.099Z,6.20
2018-01-26T03:41:56.664Z,6.20
2018-01-26T03:44:24.284Z,6.20
2018-01-26T03:46:51.873Z,6.10
2018-01-26T03:49:19.424Z,6.10
2018-01-26T03:51:47.081Z,6.10
2018-01-26T03:54:15.590Z,6.10
2018-01-26T03:56:43.298Z,6.10
2018-01-26T03:59:10.869Z,6.10
2018-01-26T04:01:39.291Z,6.10
2018-01-26T04:04:06.843Z,6.10
2018-01-26T04:06:34.537Z,6.20
2018-01-26T04:09:02.092Z,6.20
2018-01-26T04:11:29.784Z,6.20
2018-01-26T04:13:57.396Z,6.10
2018-01-26T04:16:24.929Z,6.00
2018-01-26T04:18:53.261Z,6.10
2018-01-26T04:21:20.802Z,6.10
2018-01-26T04:23:48.361Z,6.30
2018-01-26T04:26:15.935Z,6.30
2018-01-26T04:28:43.510Z,6.20
2018-01-26T04:31:11.071Z,6.10
2018-01-26T04:33:38.616Z,6.10
2018-01-26T04:36:06.165Z,6.10
2018-01-26T04:38:33.736Z,6.00
2018-01-26T04:41:01.424Z,6.00
2018-01-26T04:43:29.001Z,5.90
2018-01-26T04:45:56.566Z,5.80
2018-01-26T04:48:24.756Z,5.80
2018-01-26T04:50:53.110Z,5.70
2018-01-26T04:53:20.798Z,5.70
2018-01-26T04:55:48.430Z,5.60
2018-01-26T04:58:15.990Z,5.50
2018-01-26T05:00:43.560Z,5.40
2018-01-26T05:03:11.108Z,5.40
2018-01-26T05:05:38.677Z,5.40
2018-01-26T05:08:06.241Z,5.40
2018-01-26T05:10:33.844Z,5.40
2018-01-26T05:13:02.173Z,5.30
2018-01-26T05:15:29.860Z,5.30
2018-01-26T05:17:57.400Z,5.30
2018-01-26T05:20:24.950Z,5.20
2018-01-26T05:22:52.520Z,5.20
2018-01-26T05:25:20.073Z,5.30
2018-01-26T05:27:47.631Z,5.40
2018-01-26T05:30:15.177Z,5.40
2018-01-26T05:32:42.913Z,5.40
2018-01-26T05:35:11.241Z,5.50
2018-01-26T05:37:38.814Z,5.50
2018-01-26T05:40:16.467Z,5.50
2018-01-26T05:42:44.820Z,5.40
2018-01-26T05:45:12.361Z,5.30
2018-01-26T05:47:39.957Z,5.30
2018-01-26T05:50:07.499Z,5.20
2018-01-26T05:52:35.272Z,5.10
2018-01-26T05:55:02.812Z,5.10
2018-01-26T05:57:30.351Z,5.10
2018-01-26T05:59:57.969Z,5.00
2018-01-26T06:02:25.741Z,5.00
2018-01-26T06:04:53.309Z,5.00
2018-01-26T06:07:21.632Z,5.10
2018-01-26T06:09:49.199Z,5.00
2018-01-26T06:12:16.776Z,5.20
2018-01-26T06:14:44.324Z,5.30
2018-01-26T06:17:11.892Z,5.60
2018-01-26T06:19:39.465Z,5.70
2018-01-26T06:22:07.016Z,5.80
2018-01-26T06:24:34.750Z,5.90
2018-01-26T06:27:02.318Z,5.90
2018-01-26T06:29:29.889Z,5.80
2018-01-26T06:31:57.454Z,5.70
2018-01-26T06:34:25.009Z,5.60
2018-01-26T06:36:52.554Z,5.60
2018-01-26T06:39:20.089Z,5.60
2018-01-26T06:41:47.646Z,5.60
2018-01-26T06:44:15.323Z,5.60
2018-01-26T06:46:43.651Z,5.50
2018-01-26T06:49:11.258Z,5.50
2018-01-26T06:51:39.569Z,5.40
2018-01-26T06:54:07.191Z,5.40
2018-01-26T06:56:34.770Z,5.40
2018-01-26T06:59:02.499Z,5.30
2018-01-26T07:01:30.032Z,5.30
2018-01-26T07:03:57.584Z,5.20
2018-01-26T07:06:25.200Z,5.20
2018-01-26T07:08:52.781Z,5.20
2018-01-26T07:11:20.339Z,5.20
2018-01-26T07:13:47.904Z,5.20
2018-01-26T07:16:15.457Z,5.30
2018-01-26T07:18:43.017Z,5.50
2018-01-26T07:21:10.604Z,5.70
2018-01-26T07:23:38.197Z,5.90
2018-01-26T07:26:06.545Z,6.10
2018-01-26T07:28:34.092Z,6.10
2018-01-26T07:31:01.686Z,6.10
2018-01-26T07:33:29.248Z,6.10
2018-01-26T07:35:56.818Z,6.10
2018-01-26T07:38:24.579Z,6.20
2018-01-26T07:40:52.152Z,6.20
2018-01-26T07:43:19.698Z,6.30
2018-01-26T07:45:47.255Z,6.40
2018-01-26T07:48:14.978Z,6.40
2018-01-26T07:50:43.326Z,6.40
2018-01-26T07:53:10.890Z,6.40
2018-01-26T07:55:38.498Z,6.50
2018-01-26T07:58:06.869Z,6.60
2018-01-26T08:00:35.214Z,6.70
2018-01-26T08:03:02.834Z,6.70
2018-01-26T08:05:30.391Z,6.70
2018-01-26T08:07:57.971Z,6.70
2018-01-26T08:10:25.514Z,6.70
2018-01-26T08:12:53.090Z,6.80
2018-01-26T08:15:20.656Z,6.90
2018-01-26T08:17:48.217Z,6.90
2018-01-26T08:20:15.793Z,7.10
2018-01-26T08:22:43.391Z,7.20
2018-01-26T08:25:10.948Z,7.30
2018-01-26T08:27:38.529Z,7.40
2018-01-26T08:30:06.860Z,7.60
2018-01-26T08:32:34.412Z,7.60
2018-01-26T08:35:01.971Z,7.70
2018-01-26T08:37:29.577Z,7.80
2018-01-26T08:39:57.149Z,7.90
2018-01-26T08:42:24.688Z,7.90
2018-01-26T08:44:52.380Z,8.00
2018-01-26T08:47:20.726Z,8.30
2018-01-26T08:49:48.282Z,8.30
2018-01-26T08:52:15.835Z,8.40
2018-01-26T08:54:43.535Z,8.40
2018-01-26T08:57:11.876Z,8.80
2018-01-26T08:59:39.432Z,8.80
2018-01-26T09:02:06.989Z,8.90
2018-01-26T09:04:34.643Z,9.00
2018-01-26T09:07:02.196Z,9.00
2018-01-26T09:09:30.504Z,9.10
2018-01-26T09:11:58.058Z,9.10
2018-01-26T09:14:25.637Z,9.20
2018-01-26T09:16:53.190Z,9.30
2018-01-26T09:19:20.757Z,9.30
2018-01-26T09:21:48.480Z,9.30
2018-01-26T09:24:16.071Z,9.30
2018-01-26T09:26:43.625Z,9.40
2018-01-26T09:29:11.195Z,9.40
2018-01-26T09:31:38.736Z,9.30
2018-01-26T09:34:07.250Z,9.30
2018-01-26T09:36:34.902Z,9.30
2018-01-26T09:39:02.478Z,9.40
2018-01-26T09:41:31.029Z,9.40
2018-01-26T09:43:58.634Z,9.40
2018-01-26T09:46:26.305Z,9.50
2018-01-26T09:48:53.886Z,9.50
2018-01-26T09:51:21.446Z,9.50
2018-01-26T09:53:49.111Z,9.40
2018-01-26T09:56:17.482Z,9.40
2018-01-26T09:58:45.031Z,9.40
2018-01-26T10:01:12.608Z,9.50
2018-01-26T10:03:40.176Z,9.50
2018-01-26T10:06:07.774Z,9.70
2018-01-26T10:08:35.290Z,9.70
2018-01-26T10:11:03.783Z,9.70
2018-01-26T10:13:31.382Z,9.60
2018-01-26T10:15:58.929Z,9.70
2018-01-26T10:18:27.256Z,9.70
2018-01-26T10:20:54.805Z,9.60
2018-01-26T10:23:22.358Z,9.80
2018-01-26T10:25:49.980Z,10.10
2018-01-26T10:28:17.516Z,10.20
2018-01-26T10:30:45.082Z,10.40
2018-01-26T10:33:12.649Z,10.50
2018-01-26T10:35:40.220Z,10.60
2018-01-26T10:38:07.811Z,10.70
2018-01-26T10:40:35.332Z,10.60
2018-01-26T10:43:02.905Z,10.50
2018-01-26T10:45:30.593Z,10.40
2018-01-26T10:47:58.912Z,10.50
2018-01-26T10:50:26.534Z,10.50
2018-01-26T10:52:54.865Z,10.50
2018-01-26T10:55:22.498Z,10.50
2018-01-26T10:57:50.011Z,10.50
2018-01-26T11:00:17.769Z,10.70
2018-01-26T11:02:45.332Z,10.80
2018-01-26T11:05:13.708Z,10.80
2018-01-26T11:07:41.282Z,10.80
2018-01-26T11:10:08.854Z,10.80
2018-01-26T11:12:36.414Z,10.70
2018-01-26T11:15:03.982Z,10.70
2018-01-26T11:17:32.354Z,10.70
2018-01-26T11:19:59.938Z,10.70
2018-01-26T11:22:27.541Z,10.80
2018-01-26T11:24:55.121Z,10.90
2018-01-26T11:27:22.673Z,10.90
2018-01-26T11:29:50.432Z,11.00
2018-01-26T11:32:17.999Z,11.00
2018-01-26T11:34:45.593Z,11.10
2018-01-26T11:37:13.938Z,11.40
2018-01-26T11:39:41.509Z,11.30
2018-01-26T11:42:09.101Z,11.40
2018-01-26T11:44:37.430Z,11.50
2018-01-26T11:47:05.161Z,11.50
2018-01-26T11:49:32.757Z,11.60
2018-01-26T11:52:01.171Z,11.50
2018-01-26T11:54:28.728Z,11.40
2018-01-26T11:56:56.286Z,11.40
2018-01-26T11:59:23.828Z,11.30
2018-01-26T12:01:51.394Z,11.10
2018-01-26T12:04:18.963Z,10.80
2018-01-26T12:06:46.557Z,10.70
2018-01-26T12:09:14.870Z,10.80
2018-01-26T12:11:42.430Z,10.80
2018-01-26T12:14:09.980Z,10.90
2018-01-26T12:16:37.537Z,11.10
2018-01-26T12:19:05.089Z,11.20
2018-01-26T12:21:32.722Z,11.20
2018-01-26T12:24:01.076Z,11.70
2018-01-26T12:26:28.686Z,11.70
2018-01-26T12:28:57.004Z,12.00
2018-01-26T12:31:24.616Z,12.00
2018-01-26T12:33:53.166Z,12.10
2018-01-26T12:36:20.733Z,12.10
2018-01-26T12:38:48.286Z,12.20
2018-01-26T12:41:15.842Z,12.10
2018-01-26T12:43:43.406Z,12.10
2018-01-26T12:46:10.985Z,12.00
2018-01-26T12:48:38.534Z,11.80
2018-01-26T12:51:06.097Z,11.80
2018-01-26T12:53:33.655Z,11.70
2018-01-26T12:56:01.210Z,11.70
2018-01-26T12:58:29.748Z,11.60
2018-01-26T13:00:57.380Z,11.60
2018-01-26T13:03:24.954Z,11.60
2018-01-26T13:05:52.542Z,11.50
2018-01-26T13:08:20.095Z,11.50
2018-01-26T13:10:48.521Z,11.50
2018-01-26T13:13:16.080Z,11.50
2018-01-26T13:15:43.641Z,11.40
2018-01-26T13:18:11.203Z,11.30
2018-01-26T13:20:38.843Z,11.40
2018-01-26T13:23:06.410Z,11.60
2018-01-26T13:25:34.122Z,11.80
2018-01-26T13:28:02.452Z,11.80
2018-01-26T13:30:30.027Z,11.80
2018-01-26T13:32:57.617Z,11.80
2018-01-26T13:35:25.981Z,11.60
2018-01-26T13:37:53.545Z,11.60
2018-01-26T13:40:21.886Z,11.30
2018-01-26T13:42:49.465Z,11.30
2018-01-26T13:45:17.048Z,11.10
2018-01-26T13:47:44.677Z,11.00
2018-01-26T13:50:12.232Z,10.90
2018-01-26T13:52:39.844Z,10.80
2018-01-26T13:55:07.440Z,10.60
2018-01-26T13:57:35.730Z,10.50
2018-01-26T14:00:03.976Z,10.50
2018-01-26T14:02:32.333Z,10.40
2018-01-26T14:04:59.890Z,10.40
2018-01-26T14:07:28.333Z,10.40
2018-01-26T14:09:55.914Z,10.40
2018-01-26T14:12:23.525Z,10.40
2018-01-26T14:14:51.880Z,10.40
2018-01-26T14:17:20.214Z,10.50
2018-01-26T14:19:47.801Z,10.40
2018-01-26T14:22:15.389Z,10.50
2018-01-26T14:24:42.947Z,10.50
2018-01-26T14:27:10.508Z,10.50
2018-01-26T14:29:38.057Z,10.50
2018-01-26T14:32:05.631Z,10.40
2018-01-26T14:34:33.206Z,10.40
2018-01-26T14:37:00.769Z,10.40
2018-01-26T14:39:29.146Z,10.20
2018-01-26T14:41:57.493Z,10.30
2018-01-26T14:44:25.183Z,10.20
2018-01-26T14:46:52.804Z,10.20
2018-01-26T14:49:20.361Z,10.10
2018-01-26T14:51:47.926Z,10.00
2018-01-26T14:54:15.487Z,10.00
2018-01-26T14:56:43.057Z,9.90
2018-01-26T14:59:10.628Z,9.90
2018-01-26T15:01:38.691Z,9.90
2018-01-26T15:04:06.320Z,9.90
2018-01-26T15:06:34.663Z,9.80
2018-01-26T15:09:02.312Z,9.70
2018-01-26T15:11:29.856Z,9.60
2018-01-26T15:13:57.449Z,9.60
2018-01-26T15:16:25.021Z,9.50
2018-01-26T15:18:52.590Z,9.40
2018-01-26T15:21:20.953Z,9.20
2018-01-26T15:23:48.498Z,9.20
2018-01-26T15:26:16.058Z,9.10
2018-01-26T15:28:43.617Z,9.00
2018-01-26T15:31:11.188Z,8.90
2018-01-26T15:33:39.486Z,8.80
2018-01-26T15:36:07.076Z,8.70
2018-01-26T15:38:34.667Z,8.60
2018-01-26T15:41:02.233Z,8.50
2018-01-26T15:43:29.800Z,8.50
2018-01-26T15:45:57.468Z,8.30
2018-01-26T15:48:25.010Z,8.10
2018-01-26T15:50:52.653Z,8.00
2018-01-26T15:53:20.248Z,7.80
2018-01-26T15:55:47.821Z,7.60
2018-01-26T15:58:15.392Z,7.40
2018-01-26T16:00:43.858Z,7.10
2018-01-26T16:03:11.439Z,7.10
2018-01-26T16:05:39.065Z,7.00
2018-01-26T16:08:06.966Z,6.90
2018-01-26T16:10:34.614Z,6.90
2018-01-26T16:13:02.183Z,6.70
2018-01-26T16:15:29.865Z,6.60
2018-01-26T16:17:58.205Z,6.50
2018-01-26T16:20:25.797Z,6.40
2018-01-26T16:22:53.354Z,6.50
2018-01-26T16:25:20.941Z,6.50
2018-01-26T16:27:48.517Z,6.50
2018-01-26T16:30:16.874Z,6.30
2018-01-26T16:32:44.580Z,6.30
2018-01-26T16:35:12.906Z,6.00
2018-01-26T16:37:40.473Z,5.90
2018-01-26T16:40:08.053Z,5.80
2018-01-26T16:42:36.360Z,5.60
2018-01-26T16:45:04.847Z,5.50
2018-01-26T16:47:32.434Z,5.40
2018-01-26T16:49:59.998Z,5.40
2018-01-26T16:52:27.665Z,5.40
2018-01-26T16:54:55.289Z,5.30
2018-01-26T16:57:23.924Z,5.30
2018-01-26T16:59:51.497Z,5.20
2018-01-26T17:02:19.093Z,5.20
2018-01-26T17:04:47.421Z,5.30
2018-01-26T17:07:14.981Z,5.20
2018-01-26T17:09:42.730Z,5.30
2018-01-26T17:12:10.358Z,5.20
2018-01-26T17:14:38.050Z,5.20
2018-01-26T17:17:05.650Z,5.20
2018-01-26T17:19:33.254Z,5.20
2018-01-26T17:22:01.605Z,5.10
2018-01-26T17:24:29.167Z,5.10
2018-01-26T17:26:56.789Z,5.10
2018-01-26T17:29:24.336Z,5.10
2018-01-26T17:31:52.710Z,5.10
2018-01-26T17:34:21.056Z,5.10
2018-01-26T17:36:48.879Z,5.00
2018-01-26T17:39:16.461Z,5.00
2018-01-26T17:41:44.033Z,5.00
2018-01-26T17:44:12.604Z,5.00
2018-01-26T17:46:40.206Z,5.00
2018-01-26T17:49:08.009Z,5.00
2018-01-26T17:51:35.653Z,4.90
2018-01-26T17:54:04.016Z,4.80
2018-01-26T17:56:31.582Z,4.80
2018-01-26T17:58:59.962Z,4.70
2018-01-26T18:01:28.292Z,4.70
2018-01-26T18:03:55.853Z,4.70
2018-01-26T18:06:23.418Z,4.70
2018-01-26T18:08:50.991Z,4.70
2018-01-26T18:11:18.583Z,4.70
2018-01-26T18:13:46.145Z,4.70
2018-01-26T18:16:13.909Z,4.70
2018-01-26T18:18:41.522Z,4.60
2018-01-26T18:21:09.133Z,4.60
2018-01-26T18:23:37.549Z,4.40
2018-01-26T18:26:05.918Z,4.40
2018-01-26T18:28:33.493Z,4.40
2018-01-26T18:31:01.116Z,4.40
2018-01-26T18:33:28.719Z,4.40
2018-01-26T18:35:57.130Z,4.30
2018-01-26T18:38:24.785Z,4.30
2018-01-26T18:40:53.163Z,4.30
2018-01-26T18:43:20.759Z,4.30
2018-01-26T18:45:48.350Z,4.30
2018-01-26T18:48:15.946Z,4.30
2018-01-26T18:50:43.514Z,4.20
2018-01-26T18:53:11.150Z,4.10
2018-01-26T18:55:39.549Z,4.10
2018-01-26T18:58:08.029Z,4.00
2018-01-26T19:00:35.657Z,4.00
2018-01-26T19:03:03.227Z,4.00
2018-01-26T19:05:30.837Z,3.90
2018-01-26T19:07:58.441Z,3.90
2018-01-26T19:10:26.010Z,3.90
2018-01-26T19:12:53.607Z,3.90
2018-01-26T19:15:21.292Z,3.90
2018-01-26T19:17:48.943Z,3.80
2018-01-26T19:20:16.721Z,3.80
2018-01-26T19:22:44.491Z,3.80
2018-01-26T19:25:12.088Z,3.80
2018-01-26T19:27:40.411Z,3.70
2018-01-26T19:30:07.988Z,3.70
2018-01-26T19:32:35.639Z,3.70
2018-01-26T19:35:03.418Z,3.60
2018-01-26T19:37:31.169Z,3.60
2018-01-26T19:39:58.689Z,3.50
2018-01-26T19:42:26.258Z,3.50
2018-01-26T19:44:54.169Z,3.50
2018-01-26T19:47:21.793Z,3.50
2018-01-26T19:49:49.599Z,3.40
2018-01-26T19:52:17.231Z,3.30
2018-01-26T19:54:45.562Z,3.20
2018-01-26T19:57:13.174Z,3.20
2018-01-26T19:59:41.892Z,3.10
2018-01-26T20:02:09.840Z,3.10
2018-01-26T20:04:43.570Z,3.10
2018-01-26T20:07:29.133Z,3.10
2018-01-26T20:09:56.720Z,3.10
2018-01-26T20:12:24.283Z,3.00
2018-01-26T20:14:52.020Z,3.00
2018-01-26T20:17:20.639Z,3.00
2018-01-26T20:19:48.609Z,2.90
2018-01-26T20:22:16.317Z,3.00
2018-01-26T20:24:43.889Z,3.00
2018-01-26T20:27:11.616Z,3.00
2018-01-26T20:29:39.210Z,2.90
2018-01-26T20:32:07.603Z,2.80
2018-01-26T20:34:35.967Z,2.80
2018-01-26T20:37:04.323Z,2.70
2018-01-26T20:39:32.198Z,2.70
2018-01-26T20:42:00.251Z,2.80
2018-01-26T20:44:27.861Z,2.80
2018-01-26T20:46:55.499Z,2.80
2018-01-26T20:49:23.138Z,2.80
2018-01-26T20:51:52.040Z,2.80
2018-01-26T20:54:19.737Z,2.90
2018-01-26T20:56:47.483Z,3.00
2018-01-26T20:59:15.046Z,3.10
2018-01-26T21:01:42.725Z,3.10
2018-01-26T21:04:10.442Z,3.10
2018-01-26T21:06:38.339Z,3.10
2018-01-26T21:09:06.387Z,3.10
2018-01-26T21:11:34.185Z,3.10
2018-01-26T21:14:02.091Z,3.10
2018-01-26T21:16:30.583Z,3.10
2018-01-26T21:18:59.331Z,3.10
2018-01-26T21:21:26.934Z,3.10
2018-01-26T21:23:55.264Z,3.20
2018-01-26T21:26:22.882Z,3.20
2018-01-26T21:28:51.241Z,3.40
2018-01-26T21:31:18.777Z,3.30
2018-01-26T21:33:46.341Z,3.40
2018-01-26T21:36:15.554Z,3.30
2018-01-26T21:38:43.129Z,3.30
2018-01-26T21:41:11.495Z,3.20
2018-01-26T21:43:39.057Z,3.20
2018-01-26T21:46:06.634Z,3.10
2018-01-26T21:48:34.946Z,3.10
2018-01-26T21:51:02.505Z,3.10
2018-01-26T21:53:30.070Z,3.20
2018-01-26T21:55:57.644Z,3.20
2018-01-26T21:58:25.257Z,3.20
2018-01-26T22:00:53.772Z,3.10
2018-01-26T22:03:21.370Z,3.10
2018-01-26T22:05:48.913Z,3.10
2018-01-26T22:08:16.460Z,3.10
2018-01-26T22:10:44.029Z,3.10
2018-01-26T22:13:11.637Z,3.10
2018-01-26T22:15:39.204Z,3.10
2018-01-26T22:18:06.784Z,3.10
2018-01-26T22:20:35.116Z,3.10
2018-01-26T22:23:02.674Z,3.10
2018-01-26T22:25:30.237Z,3.20
2018-01-26T22:27:57.913Z,3.20
2018-01-26T22:30:25.452Z,3.10
2018-01-26T22:32:53.165Z,3.10
2018-01-26T22:35:20.738Z,3.00
2018-01-26T22:37:48.339Z,2.90
2018-01-26T22:40:15.893Z,2.80
2018-01-26T22:42:43.600Z,2.80
2018-01-26T22:45:13.314Z,2.90
2018-01-26T22:47:40.973Z,3.00
2018-01-26T22:50:08.543Z,3.10
2018-01-26T22:52:36.109Z,3.10
2018-01-26T22:55:04.467Z,3.00
2018-01-26T22:57:32.134Z,2.90
2018-01-26T22:59:59.715Z,3.00
2018-01-26T23:02:28.033Z,3.20
2018-01-26T23:04:55.612Z,3.20
2018-01-26T23:07:23.190Z,3.30
2018-01-26T23:09:50.758Z,3.50
2018-01-26T23:12:18.342Z,3.60
2018-01-26T23:14:46.715Z,3.70
2018-01-26T23:17:14.285Z,3.60
2018-01-26T23:19:42.643Z,3.80
2018-01-26T23:22:10.220Z,3.80
2018-01-26T23:24:37.770Z,4.00
2018-01-26T23:27:05.330Z,4.20
2018-01-26T23:29:32.878Z,4.30
2018-01-26T23:32:00.481Z,4.40
2018-01-26T23:34:30.386Z,4.50
2018-01-26T23:36:58.750Z,4.50
2018-01-26T23:39:26.363Z,4.50
2018-01-26T23:41:53.917Z,4.40
2018-01-26T23:44:21.566Z,4.50
2018-01-26T23:46:49.899Z,4.50
2018-01-26T23:49:17.464Z,4.50
2018-01-26T23:51:45.029Z,4.50
2018-01-26T23:54:12.608Z,4.40
2018-01-26T23:56:40.212Z,4.40
2018-01-26T23:59:07.760Z,4.40
